sensor_id;sensor_type;location;lat;lon;timestamp;P1;durP1;ratioP1;P2;durP2;ratioP2
75171;SDS011;63750;52.418;20.742;2023-08-30T00:00:15;22.20;;;17.40;;
75171;SDS011;63750;52.418;20.742;2023-08-30T00:03:04;18.10;;;15.30;;
75171;SDS011;63750;52.418;20.742;2023-08-30T00:05:53;19.10;;;15.20;;
75171;SDS011;63750;52.418;20.742;2023-08-30T00:08:42;15.50;;;13.80;;
75171;SDS011;63750;52.418;20.742;2023-08-30T00:11:31;19.00;;;14.90;;
75171;SDS011;63750;52.418;20.742;2023-08-30T00:14:19;19.10;;;16.10;;
75171;SDS011;63750;52.418;20.742;2023-08-30T00:17:08;17.30;;;14.90;;
75171;SDS011;63750;52.418;20.742;2023-08-30T00:19:57;19.70;;;16.10;;
75171;SDS011;63750;52.418;20.742;2023-08-30T00:22:47;15.20;;;13.50;;
75171;SDS011;63750;52.418;20.742;2023-08-30T00:25:36;21.70;;;17.40;;
75171;SDS011;63750;52.418;20.742;2023-08-30T00:28:25;19.20;;;16.40;;
75171;SDS011;63750;52.418;20.742;2023-08-30T00:31:13;21.60;;;17.40;;
75171;SDS011;63750;52.418;20.742;2023-08-30T00:34:02;18.60;;;15.70;;
75171;SDS011;63750;52.418;20.742;2023-08-30T00:36:51;20.20;;;16.40;;
75171;SDS011;63750;52.418;20.742;2023-08-30T00:39:40;24.10;;;19.80;;
75171;SDS011;63750;52.418;20.742;2023-08-30T00:42:29;23.80;;;18.80;;
75171;SDS011;63750;52.418;20.742;2023-08-30T00:45:17;17.50;;;14.30;;
75171;SDS011;63750;52.418;20.742;2023-08-30T00:48:07;20.60;;;16.30;;
75171;SDS011;63750;52.418;20.742;2023-08-30T00:50:56;21.20;;;16.50;;
75171;SDS011;63750;52.418;20.742;2023-08-30T00:53:45;22.50;;;18.20;;
75171;SDS011;63750;52.418;20.742;2023-08-30T00:56:35;21.10;;;17.10;;
75171;SDS011;63750;52.418;20.742;2023-08-30T00:59:24;21.10;;;16.50;;
75171;SDS011;63750;52.418;20.742;2023-08-30T01:02:13;19.00;;;17.00;;
75171;SDS011;63750;52.418;20.742;2023-08-30T01:05:03;19.60;;;16.20;;
75171;SDS011;63750;52.418;20.742;2023-08-30T01:07:52;19.40;;;16.00;;
75171;SDS011;63750;52.418;20.742;2023-08-30T01:10:44;18.80;;;15.40;;
75171;SDS011;63750;52.418;20.742;2023-08-30T01:13:40;17.80;;;15.60;;
75171;SDS011;63750;52.418;20.742;2023-08-30T01:16:33;19.20;;;15.90;;
75171;SDS011;63750;52.418;20.742;2023-08-30T01:19:30;19.40;;;15.60;;
75171;SDS011;63750;52.418;20.742;2023-08-30T01:22:35;18.50;;;15.00;;
75171;SDS011;63750;52.418;20.742;2023-08-30T01:25:34;16.50;;;13.60;;
75171;SDS011;63750;52.418;20.742;2023-08-30T01:28:30;21.10;;;16.40;;
75171;SDS011;63750;52.418;20.742;2023-08-30T01:31:21;22.20;;;17.70;;
75171;SDS011;63750;52.418;20.742;2023-08-30T01:34:13;18.60;;;15.20;;
75171;SDS011;63750;52.418;20.742;2023-08-30T01:37:02;22.20;;;17.00;;
75171;SDS011;63750;52.418;20.742;2023-08-30T01:39:53;17.50;;;14.40;;
75171;SDS011;63750;52.418;20.742;2023-08-30T01:42:45;20.40;;;16.30;;
75171;SDS011;63750;52.418;20.742;2023-08-30T01:45:36;19.10;;;15.00;;
75171;SDS011;63750;52.418;20.742;2023-08-30T01:48:28;18.00;;;14.80;;
75171;SDS011;63750;52.418;20.742;2023-08-30T01:51:20;24.10;;;17.30;;
75171;SDS011;63750;52.418;20.742;2023-08-30T01:54:09;25.60;;;19.60;;
75171;SDS011;63750;52.418;20.742;2023-08-30T01:57:04;20.40;;;16.30;;
75171;SDS011;63750;52.418;20.742;2023-08-30T01:59:53;21.60;;;17.10;;
75171;SDS011;63750;52.418;20.742;2023-08-30T02:02:42;22.80;;;17.50;;
75171;SDS011;63750;52.418;20.742;2023-08-30T02:05:31;23.80;;;18.20;;
75171;SDS011;63750;52.418;20.742;2023-08-30T02:08:21;24.20;;;18.50;;
75171;SDS011;63750;52.418;20.742;2023-08-30T02:11:14;24.10;;;17.70;;
75171;SDS011;63750;52.418;20.742;2023-08-30T02:14:06;22.00;;;17.10;;
75171;SDS011;63750;52.418;20.742;2023-08-30T02:16:57;21.90;;;16.20;;
75171;SDS011;63750;52.418;20.742;2023-08-30T02:19:47;23.20;;;17.90;;
75171;SDS011;63750;52.418;20.742;2023-08-30T02:22:36;21.10;;;16.30;;
75171;SDS011;63750;52.418;20.742;2023-08-30T02:25:25;22.80;;;18.50;;
75171;SDS011;63750;52.418;20.742;2023-08-30T02:28:14;22.00;;;18.20;;
75171;SDS011;63750;52.418;20.742;2023-08-30T02:31:03;23.90;;;18.60;;
75171;SDS011;63750;52.418;20.742;2023-08-30T02:33:51;20.30;;;15.90;;
75171;SDS011;63750;52.418;20.742;2023-08-30T02:36:40;23.20;;;16.70;;
75171;SDS011;63750;52.418;20.742;2023-08-30T02:39:29;20.70;;;15.60;;
75171;SDS011;63750;52.418;20.742;2023-08-30T02:42:18;21.90;;;17.40;;
75171;SDS011;63750;52.418;20.742;2023-08-30T02:45:08;23.00;;;17.70;;
75171;SDS011;63750;52.418;20.742;2023-08-30T02:47:57;20.20;;;16.30;;
75171;SDS011;63750;52.418;20.742;2023-08-30T02:50:46;18.80;;;15.90;;
75171;SDS011;63750;52.418;20.742;2023-08-30T02:53:35;20.80;;;16.40;;
75171;SDS011;63750;52.418;20.742;2023-08-30T02:56:23;20.60;;;16.60;;
75171;SDS011;63750;52.418;20.742;2023-08-30T02:59:12;21.10;;;16.80;;
75171;SDS011;63750;52.418;20.742;2023-08-30T03:02:01;20.10;;;15.30;;
75171;SDS011;63750;52.418;20.742;2023-08-30T03:04:50;23.00;;;17.20;;
75171;SDS011;63750;52.418;20.742;2023-08-30T03:07:39;21.30;;;16.90;;
75171;SDS011;63750;52.418;20.742;2023-08-30T03:10:28;23.00;;;16.60;;
75171;SDS011;63750;52.418;20.742;2023-08-30T03:13:17;16.00;;;13.20;;
75171;SDS011;63750;52.418;20.742;2023-08-30T03:16:11;23.30;;;16.90;;
75171;SDS011;63750;52.418;20.742;2023-08-30T03:19:00;24.00;;;18.10;;
75171;SDS011;63750;52.418;20.742;2023-08-30T03:21:49;21.20;;;16.10;;
75171;SDS011;63750;52.418;20.742;2023-08-30T03:24:37;26.90;;;20.30;;
75171;SDS011;63750;52.418;20.742;2023-08-30T03:27:26;20.00;;;16.10;;
75171;SDS011;63750;52.418;20.742;2023-08-30T03:30:15;20.90;;;16.00;;
75171;SDS011;63750;52.418;20.742;2023-08-30T03:33:05;25.20;;;18.80;;
75171;SDS011;63750;52.418;20.742;2023-08-30T03:35:53;18.20;;;14.70;;
75171;SDS011;63750;52.418;20.742;2023-08-30T03:38:45;27.30;;;20.10;;
75171;SDS011;63750;52.418;20.742;2023-08-30T03:41:33;25.80;;;18.90;;
75171;SDS011;63750;52.418;20.742;2023-08-30T03:44:22;25.00;;;18.90;;
75171;SDS011;63750;52.418;20.742;2023-08-30T03:47:11;21.80;;;16.80;;
75171;SDS011;63750;52.418;20.742;2023-08-30T03:50:00;20.10;;;14.90;;
75171;SDS011;63750;52.418;20.742;2023-08-30T03:52:49;20.30;;;15.50;;
75171;SDS011;63750;52.418;20.742;2023-08-30T03:55:37;24.80;;;18.40;;
75171;SDS011;63750;52.418;20.742;2023-08-30T03:58:27;24.50;;;17.40;;
75171;SDS011;63750;52.418;20.742;2023-08-30T04:01:16;22.90;;;16.80;;
75171;SDS011;63750;52.418;20.742;2023-08-30T04:04:05;20.30;;;15.80;;
75171;SDS011;63750;52.418;20.742;2023-08-30T04:06:54;19.80;;;16.00;;
75171;SDS011;63750;52.418;20.742;2023-08-30T04:09:43;22.40;;;17.20;;
75171;SDS011;63750;52.418;20.742;2023-08-30T04:12:31;22.50;;;16.70;;
75171;SDS011;63750;52.418;20.742;2023-08-30T04:15:20;21.50;;;16.30;;
75171;SDS011;63750;52.418;20.742;2023-08-30T04:18:09;22.80;;;17.40;;
75171;SDS011;63750;52.418;20.742;2023-08-30T04:20:58;20.00;;;16.00;;
75171;SDS011;63750;52.418;20.742;2023-08-30T04:23:47;20.30;;;15.50;;
75171;SDS011;63750;52.418;20.742;2023-08-30T04:26:35;16.00;;;13.50;;
75171;SDS011;63750;52.418;20.742;2023-08-30T04:29:24;21.70;;;16.00;;
75171;SDS011;63750;52.418;20.742;2023-08-30T04:32:13;16.50;;;12.90;;
75171;SDS011;63750;52.418;20.742;2023-08-30T04:35:02;18.50;;;15.10;;
75171;SDS011;63750;52.418;20.742;2023-08-30T04:37:51;17.60;;;14.10;;
75171;SDS011;63750;52.418;20.742;2023-08-30T04:40:40;18.50;;;14.40;;
75171;SDS011;63750;52.418;20.742;2023-08-30T04:43:29;19.90;;;14.60;;
75171;SDS011;63750;52.418;20.742;2023-08-30T04:46:18;19.30;;;14.70;;
75171;SDS011;63750;52.418;20.742;2023-08-30T04:49:07;23.10;;;17.60;;
75171;SDS011;63750;52.418;20.742;2023-08-30T04:51:55;23.50;;;17.00;;
75171;SDS011;63750;52.418;20.742;2023-08-30T04:54:44;20.20;;;14.60;;
75171;SDS011;63750;52.418;20.742;2023-08-30T04:57:33;22.50;;;17.40;;
75171;SDS011;63750;52.418;20.742;2023-08-30T05:00:22;27.90;;;20.00;;
75171;SDS011;63750;52.418;20.742;2023-08-30T05:03:12;24.90;;;18.30;;
75171;SDS011;63750;52.418;20.742;2023-08-30T05:06:00;20.10;;;14.70;;
75171;SDS011;63750;52.418;20.742;2023-08-30T05:08:49;26.10;;;17.70;;
75171;SDS011;63750;52.418;20.742;2023-08-30T05:11:38;25.30;;;18.00;;
75171;SDS011;63750;52.418;20.742;2023-08-30T05:14:27;30.10;;;20.70;;
75171;SDS011;63750;52.418;20.742;2023-08-30T05:17:15;24.40;;;17.50;;
75171;SDS011;63750;52.418;20.742;2023-08-30T05:20:05;28.70;;;19.80;;
75171;SDS011;63750;52.418;20.742;2023-08-30T05:22:55;21.90;;;16.50;;
75171;SDS011;63750;52.418;20.742;2023-08-30T05:25:44;26.50;;;18.20;;
75171;SDS011;63750;52.418;20.742;2023-08-30T05:28:32;26.20;;;19.90;;
75171;SDS011;63750;52.418;20.742;2023-08-30T05:31:21;28.10;;;19.10;;
75171;SDS011;63750;52.418;20.742;2023-08-30T05:34:10;23.80;;;17.10;;
75171;SDS011;63750;52.418;20.742;2023-08-30T05:36:59;24.70;;;18.20;;
75171;SDS011;63750;52.418;20.742;2023-08-30T05:39:48;20.30;;;15.80;;
75171;SDS011;63750;52.418;20.742;2023-08-30T05:42:37;27.70;;;18.80;;
75171;SDS011;63750;52.418;20.742;2023-08-30T05:45:26;27.60;;;18.70;;
75171;SDS011;63750;52.418;20.742;2023-08-30T05:48:14;28.10;;;18.70;;
75171;SDS011;63750;52.418;20.742;2023-08-30T05:51:03;29.70;;;19.80;;
75171;SDS011;63750;52.418;20.742;2023-08-30T05:53:51;28.10;;;18.10;;
75171;SDS011;63750;52.418;20.742;2023-08-30T05:56:40;16.70;;;12.30;;
75171;SDS011;63750;52.418;20.742;2023-08-30T05:59:29;19.60;;;15.90;;
75171;SDS011;63750;52.418;20.742;2023-08-30T06:02:18;20.70;;;15.40;;
75171;SDS011;63750;52.418;20.742;2023-08-30T06:05:07;21.80;;;15.90;;
75171;SDS011;63750;52.418;20.742;2023-08-30T06:07:56;18.30;;;14.50;;
75171;SDS011;63750;52.418;20.742;2023-08-30T06:10:45;17.10;;;13.90;;
75171;SDS011;63750;52.418;20.742;2023-08-30T06:13:34;16.50;;;13.50;;
75171;SDS011;63750;52.418;20.742;2023-08-30T06:16:23;23.10;;;16.40;;
75171;SDS011;63750;52.418;20.742;2023-08-30T06:19:12;19.30;;;15.20;;
75171;SDS011;63750;52.418;20.742;2023-08-30T06:22:02;32.00;;;21.70;;
75171;SDS011;63750;52.418;20.742;2023-08-30T06:24:51;39.20;;;24.40;;
75171;SDS011;63750;52.418;20.742;2023-08-30T06:27:43;32.60;;;22.20;;
75171;SDS011;63750;52.418;20.742;2023-08-30T06:30:43;39.10;;;25.50;;
75171;SDS011;63750;52.418;20.742;2023-08-30T06:33:33;35.30;;;23.40;;
75171;SDS011;63750;52.418;20.742;2023-08-30T06:36:22;38.60;;;25.40;;
75171;SDS011;63750;52.418;20.742;2023-08-30T06:39:11;47.60;;;29.90;;
75171;SDS011;63750;52.418;20.742;2023-08-30T06:42:00;38.50;;;26.20;;
75171;SDS011;63750;52.418;20.742;2023-08-30T06:44:50;43.20;;;29.00;;
75171;SDS011;63750;52.418;20.742;2023-08-30T06:47:39;36.80;;;24.30;;
75171;SDS011;63750;52.418;20.742;2023-08-30T06:50:27;28.90;;;19.70;;
75171;SDS011;63750;52.418;20.742;2023-08-30T06:53:16;28.00;;;18.70;;
75171;SDS011;63750;52.418;20.742;2023-08-30T06:56:05;25.10;;;18.70;;
75171;SDS011;63750;52.418;20.742;2023-08-30T06:58:54;26.30;;;17.90;;
75171;SDS011;63750;52.418;20.742;2023-08-30T07:01:43;25.50;;;17.20;;
75171;SDS011;63750;52.418;20.742;2023-08-30T07:04:32;20.70;;;15.60;;
75171;SDS011;63750;52.418;20.742;2023-08-30T07:07:20;21.30;;;15.40;;
75171;SDS011;63750;52.418;20.742;2023-08-30T07:10:10;20.20;;;15.50;;
75171;SDS011;63750;52.418;20.742;2023-08-30T07:12:58;22.90;;;17.10;;
75171;SDS011;63750;52.418;20.742;2023-08-30T07:15:47;20.20;;;15.70;;
75171;SDS011;63750;52.418;20.742;2023-08-30T07:18:36;22.60;;;15.50;;
75171;SDS011;63750;52.418;20.742;2023-08-30T07:21:25;21.90;;;15.70;;
75171;SDS011;63750;52.418;20.742;2023-08-30T07:24:14;20.30;;;16.40;;
75171;SDS011;63750;52.418;20.742;2023-08-30T07:27:03;24.20;;;16.70;;
75171;SDS011;63750;52.418;20.742;2023-08-30T07:29:52;25.70;;;18.00;;
75171;SDS011;63750;52.418;20.742;2023-08-30T07:32:41;20.70;;;16.60;;
75171;SDS011;63750;52.418;20.742;2023-08-30T07:35:30;25.60;;;18.10;;
75171;SDS011;63750;52.418;20.742;2023-08-30T07:38:19;21.10;;;16.90;;
75171;SDS011;63750;52.418;20.742;2023-08-30T07:41:09;23.80;;;17.20;;
75171;SDS011;63750;52.418;20.742;2023-08-30T07:43:58;22.50;;;17.00;;
75171;SDS011;63750;52.418;20.742;2023-08-30T07:46:47;23.90;;;16.90;;
75171;SDS011;63750;52.418;20.742;2023-08-30T07:49:35;21.70;;;15.80;;
75171;SDS011;63750;52.418;20.742;2023-08-30T07:52:24;21.00;;;15.70;;
75171;SDS011;63750;52.418;20.742;2023-08-30T07:55:14;20.90;;;15.60;;
75171;SDS011;63750;52.418;20.742;2023-08-30T07:58:03;21.30;;;14.60;;
75171;SDS011;63750;52.418;20.742;2023-08-30T08:00:53;20.40;;;14.40;;
75171;SDS011;63750;52.418;20.742;2023-08-30T08:03:41;22.10;;;16.20;;
75171;SDS011;63750;52.418;20.742;2023-08-30T08:06:30;18.70;;;13.30;;
75171;SDS011;63750;52.418;20.742;2023-08-30T08:09:19;18.40;;;14.50;;
75171;SDS011;63750;52.418;20.742;2023-08-30T08:12:08;16.60;;;12.70;;
75171;SDS011;63750;52.418;20.742;2023-08-30T08:14:57;16.90;;;13.10;;
75171;SDS011;63750;52.418;20.742;2023-08-30T08:17:46;16.10;;;12.60;;
75171;SDS011;63750;52.418;20.742;2023-08-30T08:20:36;17.90;;;13.10;;
75171;SDS011;63750;52.418;20.742;2023-08-30T08:23:25;15.70;;;12.60;;
75171;SDS011;63750;52.418;20.742;2023-08-30T08:26:13;16.50;;;13.00;;
75171;SDS011;63750;52.418;20.742;2023-08-30T08:29:02;15.50;;;11.50;;
75171;SDS011;63750;52.418;20.742;2023-08-30T08:31:51;13.80;;;11.40;;
75171;SDS011;63750;52.418;20.742;2023-08-30T08:34:40;16.20;;;11.30;;
75171;SDS011;63750;52.418;20.742;2023-08-30T08:37:29;15.00;;;12.10;;
75171;SDS011;63750;52.418;20.742;2023-08-30T08:40:18;13.90;;;11.10;;
75171;SDS011;63750;52.418;20.742;2023-08-30T08:43:07;14.90;;;11.10;;
75171;SDS011;63750;52.418;20.742;2023-08-30T08:45:59;15.40;;;11.00;;
75171;SDS011;63750;52.418;20.742;2023-08-30T08:48:48;13.70;;;10.60;;
75171;SDS011;63750;52.418;20.742;2023-08-30T08:51:39;13.60;;;11.40;;
75171;SDS011;63750;52.418;20.742;2023-08-30T08:54:29;14.50;;;11.20;;
75171;SDS011;63750;52.418;20.742;2023-08-30T08:57:18;15.40;;;11.70;;
75171;SDS011;63750;52.418;20.742;2023-08-30T09:00:09;13.90;;;11.20;;
75171;SDS011;63750;52.418;20.742;2023-08-30T09:02:58;16.00;;;11.90;;
75171;SDS011;63750;52.418;20.742;2023-08-30T09:05:48;13.70;;;10.40;;
75171;SDS011;63750;52.418;20.742;2023-08-30T09:08:38;11.80;;;10.30;;
75171;SDS011;63750;52.418;20.742;2023-08-30T09:11:27;15.00;;;11.10;;
75171;SDS011;63750;52.418;20.742;2023-08-30T09:14:16;13.80;;;11.10;;
75171;SDS011;63750;52.418;20.742;2023-08-30T09:17:05;15.00;;;11.10;;
75171;SDS011;63750;52.418;20.742;2023-08-30T09:20:04;16.40;;;11.40;;
75171;SDS011;63750;52.418;20.742;2023-08-30T09:22:54;16.50;;;12.20;;
75171;SDS011;63750;52.418;20.742;2023-08-30T09:25:43;15.10;;;11.60;;
75171;SDS011;63750;52.418;20.742;2023-08-30T09:28:41;13.40;;;10.90;;
75171;SDS011;63750;52.418;20.742;2023-08-30T09:31:33;16.30;;;11.50;;
75171;SDS011;63750;52.418;20.742;2023-08-30T09:34:23;13.40;;;10.90;;
75171;SDS011;63750;52.418;20.742;2023-08-30T09:37:20;16.10;;;11.60;;
75171;SDS011;63750;52.418;20.742;2023-08-30T09:40:09;14.10;;;11.00;;
75171;SDS011;63750;52.418;20.742;2023-08-30T09:42:59;14.00;;;10.80;;
75171;SDS011;63750;52.418;20.742;2023-08-30T09:45:49;13.20;;;10.20;;
75171;SDS011;63750;52.418;20.742;2023-08-30T09:48:38;14.70;;;11.10;;
75171;SDS011;63750;52.418;20.742;2023-08-30T09:51:28;14.50;;;11.30;;
75171;SDS011;63750;52.418;20.742;2023-08-30T09:54:18;12.60;;;9.70;;
75171;SDS011;63750;52.418;20.742;2023-08-30T09:57:08;13.60;;;10.80;;
75171;SDS011;63750;52.418;20.742;2023-08-30T09:59:57;12.80;;;9.30;;
75171;SDS011;63750;52.418;20.742;2023-08-30T10:02:47;13.20;;;10.40;;
75171;SDS011;63750;52.418;20.742;2023-08-30T10:05:36;12.40;;;10.00;;
75171;SDS011;63750;52.418;20.742;2023-08-30T10:08:26;12.00;;;9.70;;
75171;SDS011;63750;52.418;20.742;2023-08-30T10:11:19;12.80;;;10.40;;
75171;SDS011;63750;52.418;20.742;2023-08-30T10:14:08;13.00;;;10.20;;
75171;SDS011;63750;52.418;20.742;2023-08-30T10:17:01;13.60;;;10.30;;
75171;SDS011;63750;52.418;20.742;2023-08-30T10:19:50;13.20;;;10.40;;
75171;SDS011;63750;52.418;20.742;2023-08-30T10:22:40;12.90;;;10.00;;
75171;SDS011;63750;52.418;20.742;2023-08-30T10:25:30;13.60;;;10.40;;
75171;SDS011;63750;52.418;20.742;2023-08-30T10:28:20;13.20;;;9.90;;
75171;SDS011;63750;52.418;20.742;2023-08-30T10:31:10;15.60;;;10.00;;
75171;SDS011;63750;52.418;20.742;2023-08-30T10:34:00;12.40;;;9.90;;
75171;SDS011;63750;52.418;20.742;2023-08-30T10:36:59;13.70;;;10.30;;
75171;SDS011;63750;52.418;20.742;2023-08-30T10:39:49;12.60;;;9.10;;
75171;SDS011;63750;52.418;20.742;2023-08-30T10:42:38;12.00;;;9.30;;
75171;SDS011;63750;52.418;20.742;2023-08-30T10:45:27;12.00;;;9.70;;
75171;SDS011;63750;52.418;20.742;2023-08-30T10:48:16;12.50;;;9.10;;
75171;SDS011;63750;52.418;20.742;2023-08-30T10:51:06;12.30;;;9.20;;
75171;SDS011;63750;52.418;20.742;2023-08-30T10:54:13;10.60;;;7.60;;
75171;SDS011;63750;52.418;20.742;2023-08-30T10:57:02;10.50;;;7.90;;
75171;SDS011;63750;52.418;20.742;2023-08-30T11:00:08;11.10;;;8.40;;
75171;SDS011;63750;52.418;20.742;2023-08-30T11:03:10;12.00;;;8.80;;
75171;SDS011;63750;52.418;20.742;2023-08-30T11:06:01;11.50;;;8.20;;
75171;SDS011;63750;52.418;20.742;2023-08-30T11:08:50;10.50;;;7.60;;
75171;SDS011;63750;52.418;20.742;2023-08-30T11:11:39;9.40;;;8.20;;
75171;SDS011;63750;52.418;20.742;2023-08-30T11:14:29;8.10;;;6.80;;
75171;SDS011;63750;52.418;20.742;2023-08-30T11:17:17;7.80;;;6.80;;
75171;SDS011;63750;52.418;20.742;2023-08-30T11:20:07;7.90;;;6.60;;
75171;SDS011;63750;52.418;20.742;2023-08-30T11:22:57;8.60;;;6.70;;
75171;SDS011;63750;52.418;20.742;2023-08-30T11:25:51;8.00;;;6.10;;
75171;SDS011;63750;52.418;20.742;2023-08-30T11:28:40;7.60;;;6.40;;
75171;SDS011;63750;52.418;20.742;2023-08-30T11:31:31;8.60;;;6.60;;
75171;SDS011;63750;52.418;20.742;2023-08-30T11:34:20;7.60;;;5.70;;
75171;SDS011;63750;52.418;20.742;2023-08-30T11:37:09;7.10;;;6.00;;
75171;SDS011;63750;52.418;20.742;2023-08-30T11:39:59;8.40;;;6.00;;
75171;SDS011;63750;52.418;20.742;2023-08-30T11:42:48;8.50;;;6.30;;
75171;SDS011;63750;52.418;20.742;2023-08-30T11:45:38;5.90;;;5.20;;
75171;SDS011;63750;52.418;20.742;2023-08-30T11:48:27;8.90;;;7.20;;
75171;SDS011;63750;52.418;20.742;2023-08-30T11:51:16;7.70;;;6.00;;
75171;SDS011;63750;52.418;20.742;2023-08-30T11:54:06;7.40;;;6.20;;
75171;SDS011;63750;52.418;20.742;2023-08-30T11:56:55;8.20;;;6.90;;
75171;SDS011;63750;52.418;20.742;2023-08-30T11:59:44;8.70;;;6.70;;
75171;SDS011;63750;52.418;20.742;2023-08-30T12:02:34;8.00;;;6.50;;
75171;SDS011;63750;52.418;20.742;2023-08-30T12:05:23;8.20;;;6.10;;
75171;SDS011;63750;52.418;20.742;2023-08-30T12:08:18;6.90;;;5.50;;
75171;SDS011;63750;52.418;20.742;2023-08-30T12:11:16;7.40;;;6.20;;
75171;SDS011;63750;52.418;20.742;2023-08-30T12:14:06;6.90;;;5.80;;
75171;SDS011;63750;52.418;20.742;2023-08-30T12:16:55;7.60;;;6.20;;
75171;SDS011;63750;52.418;20.742;2023-08-30T12:19:54;8.80;;;6.80;;
75171;SDS011;63750;52.418;20.742;2023-08-30T12:22:43;7.10;;;5.70;;
75171;SDS011;63750;52.418;20.742;2023-08-30T12:25:32;8.00;;;6.10;;
75171;SDS011;63750;52.418;20.742;2023-08-30T12:28:21;7.90;;;6.50;;
75171;SDS011;63750;52.418;20.742;2023-08-30T12:31:10;9.20;;;7.40;;
75171;SDS011;63750;52.418;20.742;2023-08-30T12:33:58;8.00;;;6.30;;
75171;SDS011;63750;52.418;20.742;2023-08-30T12:36:47;7.30;;;5.90;;
75171;SDS011;63750;52.418;20.742;2023-08-30T12:39:36;6.90;;;5.70;;
75171;SDS011;63750;52.418;20.742;2023-08-30T12:42:25;6.80;;;5.60;;
75171;SDS011;63750;52.418;20.742;2023-08-30T12:45:14;6.70;;;5.40;;
75171;SDS011;63750;52.418;20.742;2023-08-30T12:48:04;7.00;;;6.10;;
75171;SDS011;63750;52.418;20.742;2023-08-30T12:50:53;6.30;;;5.20;;
75171;SDS011;63750;52.418;20.742;2023-08-30T12:53:42;7.30;;;6.20;;
75171;SDS011;63750;52.418;20.742;2023-08-30T12:56:31;7.90;;;6.10;;
75171;SDS011;63750;52.418;20.742;2023-08-30T12:59:19;6.90;;;5.90;;
75171;SDS011;63750;52.418;20.742;2023-08-30T13:02:08;7.50;;;6.70;;
75171;SDS011;63750;52.418;20.742;2023-08-30T13:04:57;8.20;;;6.80;;
75171;SDS011;63750;52.418;20.742;2023-08-30T13:07:46;7.90;;;7.10;;
75171;SDS011;63750;52.418;20.742;2023-08-30T13:10:35;8.40;;;7.60;;
75171;SDS011;63750;52.418;20.742;2023-08-30T13:13:24;6.70;;;6.10;;
75171;SDS011;63750;52.418;20.742;2023-08-30T13:16:12;8.40;;;7.60;;
75171;SDS011;63750;52.418;20.742;2023-08-30T13:19:01;6.40;;;5.70;;
75171;SDS011;63750;52.418;20.742;2023-08-30T13:21:50;6.70;;;5.70;;
75171;SDS011;63750;52.418;20.742;2023-08-30T13:24:39;8.60;;;7.40;;
75171;SDS011;63750;52.418;20.742;2023-08-30T13:27:28;7.60;;;6.80;;
75171;SDS011;63750;52.418;20.742;2023-08-30T13:30:17;6.90;;;6.20;;
75171;SDS011;63750;52.418;20.742;2023-08-30T13:33:06;7.70;;;6.90;;
75171;SDS011;63750;52.418;20.742;2023-08-30T13:35:54;7.80;;;6.60;;
75171;SDS011;63750;52.418;20.742;2023-08-30T13:38:43;6.90;;;6.20;;
75171;SDS011;63750;52.418;20.742;2023-08-30T13:41:32;7.20;;;6.20;;
75171;SDS011;63750;52.418;20.742;2023-08-30T13:44:21;7.30;;;5.80;;
75171;SDS011;63750;52.418;20.742;2023-08-30T13:47:10;7.60;;;5.90;;
75171;SDS011;63750;52.418;20.742;2023-08-30T13:49:59;6.90;;;6.20;;
75171;SDS011;63750;52.418;20.742;2023-08-30T13:52:49;6.30;;;5.70;;
75171;SDS011;63750;52.418;20.742;2023-08-30T13:55:37;5.30;;;4.80;;
75171;SDS011;63750;52.418;20.742;2023-08-30T13:58:26;5.50;;;5.00;;
75171;SDS011;63750;52.418;20.742;2023-08-30T14:01:15;6.80;;;6.10;;
75171;SDS011;63750;52.418;20.742;2023-08-30T14:04:04;5.80;;;5.20;;
75171;SDS011;63750;52.418;20.742;2023-08-30T14:06:53;5.80;;;5.20;;
75171;SDS011;63750;52.418;20.742;2023-08-30T14:09:42;5.10;;;4.60;;
75171;SDS011;63750;52.418;20.742;2023-08-30T14:12:30;6.50;;;5.10;;
75171;SDS011;63750;52.418;20.742;2023-08-30T14:15:19;5.40;;;4.80;;
75171;SDS011;63750;52.418;20.742;2023-08-30T14:18:08;5.10;;;4.60;;
75171;SDS011;63750;52.418;20.742;2023-08-30T14:20:57;5.40;;;4.40;;
75171;SDS011;63750;52.418;20.742;2023-08-30T14:23:46;4.70;;;4.30;;
75171;SDS011;63750;52.418;20.742;2023-08-30T14:26:35;4.50;;;4.10;;
75171;SDS011;63750;52.418;20.742;2023-08-30T14:29:24;5.00;;;4.50;;
75171;SDS011;63750;52.418;20.742;2023-08-30T14:32:13;5.90;;;4.60;;
75171;SDS011;63750;52.418;20.742;2023-08-30T14:35:04;4.20;;;3.80;;
75171;SDS011;63750;52.418;20.742;2023-08-30T14:37:53;5.40;;;4.90;;
75171;SDS011;63750;52.418;20.742;2023-08-30T14:40:41;4.40;;;4.00;;
75171;SDS011;63750;52.418;20.742;2023-08-30T14:43:30;4.90;;;4.40;;
75171;SDS011;63750;52.418;20.742;2023-08-30T14:46:19;4.50;;;3.90;;
75171;SDS011;63750;52.418;20.742;2023-08-30T14:49:08;6.00;;;4.90;;
75171;SDS011;63750;52.418;20.742;2023-08-30T14:51:57;5.10;;;4.10;;
75171;SDS011;63750;52.418;20.742;2023-08-30T14:54:47;4.90;;;4.40;;
75171;SDS011;63750;52.418;20.742;2023-08-30T14:57:35;4.00;;;3.60;;
75171;SDS011;63750;52.418;20.742;2023-08-30T15:00:24;3.70;;;3.40;;
75171;SDS011;63750;52.418;20.742;2023-08-30T15:03:13;3.90;;;3.20;;
75171;SDS011;63750;52.418;20.742;2023-08-30T15:06:02;4.30;;;3.80;;
75171;SDS011;63750;52.418;20.742;2023-08-30T15:08:51;3.70;;;3.30;;
75171;SDS011;63750;52.418;20.742;2023-08-30T15:11:40;3.60;;;3.30;;
75171;SDS011;63750;52.418;20.742;2023-08-30T15:14:28;5.00;;;3.70;;
75171;SDS011;63750;52.418;20.742;2023-08-30T15:17:19;5.20;;;4.10;;
75171;SDS011;63750;52.418;20.742;2023-08-30T15:20:08;6.00;;;4.90;;
75171;SDS011;63750;52.418;20.742;2023-08-30T15:22:57;6.30;;;4.60;;
75171;SDS011;63750;52.418;20.742;2023-08-30T15:25:46;5.00;;;4.50;;
75171;SDS011;63750;52.418;20.742;2023-08-30T15:28:36;5.20;;;4.10;;
75171;SDS011;63750;52.418;20.742;2023-08-30T15:31:24;4.60;;;4.10;;
75171;SDS011;63750;52.418;20.742;2023-08-30T15:34:14;4.90;;;3.90;;
75171;SDS011;63750;52.418;20.742;2023-08-30T15:37:03;4.60;;;3.80;;
75171;SDS011;63750;52.418;20.742;2023-08-30T15:40:01;3.90;;;3.50;;
75171;SDS011;63750;52.418;20.742;2023-08-30T15:42:51;4.40;;;3.60;;
75171;SDS011;63750;52.418;20.742;2023-08-30T15:45:40;3.60;;;3.20;;
75171;SDS011;63750;52.418;20.742;2023-08-30T15:48:29;4.30;;;3.40;;
75171;SDS011;63750;52.418;20.742;2023-08-30T15:51:18;3.70;;;3.40;;
75171;SDS011;63750;52.418;20.742;2023-08-30T15:54:07;3.60;;;3.30;;
75171;SDS011;63750;52.418;20.742;2023-08-30T15:56:56;3.40;;;3.00;;
75171;SDS011;63750;52.418;20.742;2023-08-30T15:59:44;4.10;;;3.20;;
75171;SDS011;63750;52.418;20.742;2023-08-30T16:02:33;3.70;;;3.20;;
75171;SDS011;63750;52.418;20.742;2023-08-30T16:05:22;4.10;;;3.40;;
75171;SDS011;63750;52.418;20.742;2023-08-30T16:08:11;4.70;;;3.90;;
75171;SDS011;63750;52.418;20.742;2023-08-30T16:11:00;4.10;;;3.70;;
75171;SDS011;63750;52.418;20.742;2023-08-30T16:13:49;3.90;;;3.30;;
75171;SDS011;63750;52.418;20.742;2023-08-30T16:16:37;3.60;;;3.30;;
75171;SDS011;63750;52.418;20.742;2023-08-30T16:19:26;3.80;;;3.50;;
75171;SDS011;63750;52.418;20.742;2023-08-30T16:22:15;4.30;;;3.50;;
75171;SDS011;63750;52.418;20.742;2023-08-30T16:25:05;5.60;;;3.70;;
75171;SDS011;63750;52.418;20.742;2023-08-30T16:27:54;4.70;;;3.60;;